Time,TemperatureF,DewpointF,PressureIn,WindDirection,WindDirectionDegrees,WindSpeedMPH,WindSpeedGustMPH,Humidity,HourlyPrecipIn,Conditions,Clouds,dailyrainin,SoftwareType,DateUTC
2013-04-09 00:00:00,27.7,25.3,30.15,WSW,254,0.0,0.0,91,0.00,,,0.00,meteohub,2013-04-09 04:00:00,
2013-04-09 00:01:00,27.7,25.3,30.15,WSW,254,0.0,0.0,91,0.00,,,0.00,meteohub,2013-04-09 04:01:00,
2013-04-09 00:02:00,27.7,25.3,30.16,WSW,254,0.0,0.0,91,0.00,,,0.00,meteohub,2013-04-09 04:02:00,
2013-04-09 00:07:00,27.7,25.3,30.15,WSW,254,0.0,0.0,91,0.00,,,0.00,meteohub,2013-04-09 04:07:00,
2013-04-09 00:12:00,27.7,25.3,30.16,WSW,254,0.0,0.0,91,0.00,,,0.00,meteohub,2013-04-09 04:12:00,
2013-04-09 00:17:00,27.7,25.7,30.16,WSW,254,0.0,0.0,92,0.00,,,0.00,meteohub,2013-04-09 04:17:00,
2013-04-09 00:22:00,27.5,25.2,30.16,WSW,254,0.0,0.0,91,0.00,,,0.00,meteohub,2013-04-09 04:22:00,
2013-04-09 00:27:00,27.5,25.2,30.16,WSW,254,0.0,0.0,91,0.00,,,0.00,meteohub,2013-04-09 04:27:00,
2013-04-09 00:32:00,27.3,25.3,30.16,WSW,254,0.0,0.0,92,0.00,,,0.00,meteohub,2013-04-09 04:32:00,
2013-04-09 00:37:00,27.5,25.5,30.16,WSW,254,0.0,0.0,92,0.00,,,0.00,meteohub,2013-04-09 04:37:00,
2013-04-09 00:42:00,27.5,25.5,30.16,WSW,254,0.0,0.0,92,0.00,,,0.00,meteohub,2013-04-09 04:42:00,
2013-04-09 00:47:00,27.3,25.3,30.15,WSW,254,0.0,0.0,92,0.00,,,0.00,meteohub,2013-04-09 04:47:00,
2013-04-09 00:52:00,27.3,25.3,30.16,WSW,254,0.0,0.0,92,0.00,,,0.00,meteohub,2013-04-09 04:52:00,
2013-04-09 00:57:00,27.3,25.3,30.15,WSW,254,0.0,0.0,92,0.00,,,0.00,meteohub,2013-04-09 04:57:00,
2013-04-09 01:03:00,27.3,25.3,30.15,WSW,254,0.0,0.0,92,0.00,,,0.00,meteohub,2013-04-09 05:03:00,
2013-04-09 01:08:00,27.3,25.3,30.15,WSW,254,0.0,0.0,92,0.00,,,0.00,meteohub,2013-04-09 05:08:00,
2013-04-09 01:13:00,27.3,25.3,30.15,WSW,254,0.0,0.0,92,0.00,,,0.00,meteohub,2013-04-09 05:13:00,
2013-04-09 01:18:00,27.1,25.2,30.15,WSW,254,0.0,0.0,92,0.00,,,0.00,meteohub,2013-04-09 05:18:00,
2013-04-09 01:23:00,27.1,25.2,30.15,WSW,254,0.0,0.0,92,0.00,,,0.00,meteohub,2013-04-09 05:23:00,
2013-04-09 01:28:00,27.1,25.3,30.14,WSW,254,0.0,0.0,93,0.00,,,0.00,meteohub,2013-04-09 05:28:00,
2013-04-09 01:34:00,27.0,25.0,30.14,WSW,254,0.0,0.0,92,0.00,,,0.00,meteohub,2013-04-09 05:34:00,
2013-04-09 01:39:00,27.0,25.0,30.14,WSW,254,0.0,0.0,92,0.00,,,0.00,meteohub,2013-04-09 05:39:00,
2013-04-09 01:44:00,26.8,24.8,30.13,WSW,254,0.0,0.0,92,0.00,,,0.00,meteohub,2013-04-09 05:44:00,
2013-04-09 01:50:00,26.8,25.0,30.13,WSW,254,0.0,0.0,93,0.00,,,0.00,meteohub,2013-04-09 05:50:00,
2013-04-09 01:55:00,26.6,24.8,30.13,WSW,254,0.0,0.0,93,0.00,,,0.00,meteohub,2013-04-09 05:55:00,
2013-04-09 02:00:00,26.4,24.6,30.12,WSW,254,0.0,0.0,93,0.00,,,0.00,meteohub,2013-04-09 06:00:00,
2013-04-09 02:06:00,26.4,24.6,30.12,WSW,254,0.0,0.0,93,0.00,,,0.00,meteohub,2013-04-09 06:06:00,
2013-04-09 02:12:00,26.4,24.6,30.12,WSW,254,0.0,2.0,93,0.00,,,0.00,meteohub,2013-04-09 06:12:00,
2013-04-09 02:17:00,26.4,24.6,30.12,WSW,254,0.0,2.0,93,0.00,,,0.00,meteohub,2013-04-09 06:17:00,
2013-04-09 02:22:00,26.4,24.6,30.12,WSW,254,0.0,2.0,93,0.00,,,0.00,meteohub,2013-04-09 06:22:00,
2013-04-09 02:27:00,26.4,24.6,30.12,WSW,254,0.0,1.0,93,0.00,,,0.00,meteohub,2013-04-09 06:27:00,
2013-04-09 02:32:00,26.4,24.6,30.12,WSW,254,0.0,0.0,93,0.00,,,0.00,meteohub,2013-04-09 06:32:00,
2013-04-09 02:37:00,26.4,24.6,30.11,WSW,254,0.0,0.0,93,0.00,,,0.00,meteohub,2013-04-09 06:37:00,
2013-04-09 02:42:00,26.2,24.4,30.10,WSW,254,0.0,0.0,93,0.00,,,0.00,meteohub,2013-04-09 06:42:00,
2013-04-09 02:47:00,26.2,24.4,30.10,WSW,254,0.0,0.0,93,0.00,,,0.00,meteohub,2013-04-09 06:47:00,
2013-04-09 02:52:00,26.2,24.4,30.10,WSW,254,0.0,0.0,93,0.00,,,0.00,meteohub,2013-04-09 06:52:00,
2013-04-09 02:57:00,26.4,24.6,30.10,WSW,254,0.0,1.0,93,0.00,,,0.00,meteohub,2013-04-09 06:57:00,
2013-04-09 03:02:00,26.6,24.8,30.10,WSW,254,0.0,2.0,93,0.00,,,0.00,meteohub,2013-04-09 07:02:00,
2013-04-09 03:08:00,26.6,24.8,30.10,WSW,254,0.0,2.0,93,0.00,,,0.00,meteohub,2013-04-09 07:08:00,
2013-04-09 03:13:00,26.6,24.8,30.10,WSW,254,0.0,2.0,93,0.00,,,0.00,meteohub,2013-04-09 07:13:00,
2013-04-09 03:18:00,26.4,24.6,30.11,WSW,254,0.0,1.0,93,0.00,,,0.00,meteohub,2013-04-09 07:18:00,
2013-04-09 03:24:00,26.4,24.6,30.10,WSW,254,0.0,1.0,93,0.00,,,0.00,meteohub,2013-04-09 07:24:00,
2013-04-09 03:29:00,26.4,24.6,30.09,WSW,254,0.0,1.0,93,0.00,,,0.00,meteohub,2013-04-09 07:29:00,
2013-04-09 03:34:00,26.4,24.6,30.09,WSW,254,0.0,0.0,93,0.00,,,0.00,meteohub,2013-04-09 07:34:00,
2013-04-09 03:39:00,26.4,24.6,30.10,WSW,254,0.0,0.0,93,0.00,,,0.00,meteohub,2013-04-09 07:39:00,
2013-04-09 03:45:00,26.4,24.6,30.10,WSW,254,0.0,2.0,93,0.00,,,0.00,meteohub,2013-04-09 07:45:00,
2013-04-09 03:50:00,26.4,24.6,30.09,WSW,254,0.0,0.0,93,0.00,,,0.00,meteohub,2013-04-09 07:50:00,
2013-04-09 03:55:00,26.4,24.6,30.09,WSW,254,0.0,0.0,93,0.00,,,0.00,meteohub,2013-04-09 07:55:00,
2013-04-09 04:00:00,26.6,24.8,30.09,WSW,254,0.0,0.0,93,0.00,,,0.00,meteohub,2013-04-09 08:00:00,
2013-04-09 04:05:00,26.8,25.3,30.09,WSW,254,0.0,2.0,94,0.00,,,0.00,meteohub,2013-04-09 08:05:00,
2013-04-09 04:11:00,26.8,25.0,30.09,WSW,254,0.0,2.0,93,0.00,,,0.00,meteohub,2013-04-09 08:11:00,
2013-04-09 04:16:00,27.0,25.2,30.10,WSW,254,0.0,2.0,93,0.00,,,0.00,meteohub,2013-04-09 08:16:00,
2013-04-09 04:21:00,27.0,25.2,30.09,WSW,254,0.0,1.0,93,0.00,,,0.00,meteohub,2013-04-09 08:21:00,
2013-04-09 04:27:00,27.0,25.2,30.09,WSW,254,0.0,1.0,93,0.00,,,0.00,meteohub,2013-04-09 08:27:00,
2013-04-09 04:32:00,27.0,25.2,30.09,WSW,254,0.0,1.0,93,0.00,,,0.00,meteohub,2013-04-09 08:32:00,
2013-04-09 04:37:00,27.0,25.2,30.09,WSW,254,0.0,1.0,93,0.00,,,0.00,meteohub,2013-04-09 08:37:00,
2013-04-09 04:42:00,27.0,25.2,30.08,WSW,254,0.0,1.0,93,0.00,,,0.00,meteohub,2013-04-09 08:42:00,
2013-04-09 04:47:00,27.0,25.2,30.08,WSW,254,0.0,1.0,93,0.00,,,0.00,meteohub,2013-04-09 08:47:00,
2013-04-09 04:52:00,27.1,25.3,30.08,WSW,254,0.0,3.0,93,0.00,,,0.00,meteohub,2013-04-09 08:52:00,
2013-04-09 04:57:00,27.1,25.3,30.08,WSW,254,0.0,3.0,93,0.00,,,0.00,meteohub,2013-04-09 08:57:00,
2013-04-09 05:02:00,27.1,25.3,30.08,WSW,254,0.0,2.0,93,0.00,,,0.00,meteohub,2013-04-09 09:02:00,
2013-04-09 05:07:00,27.1,25.2,30.08,WSW,254,0.0,0.0,92,0.00,,,0.00,meteohub,2013-04-09 09:07:00,
2013-04-09 05:12:00,27.3,25.3,30.08,WSW,254,0.0,0.0,92,0.00,,,0.00,meteohub,2013-04-09 09:12:00,
2013-04-09 05:17:00,27.3,25.3,30.08,WSW,254,0.0,0.0,92,0.00,,,0.00,meteohub,2013-04-09 09:17:00,
2013-04-09 05:22:00,27.3,25.3,30.07,WSW,254,0.0,0.0,92,0.00,,,0.00,meteohub,2013-04-09 09:22:00,
2013-04-09 05:27:00,27.3,25.3,30.07,WSW,254,0.0,0.0,92,0.00,,,0.00,meteohub,2013-04-09 09:27:00,
2013-04-09 05:32:00,27.3,25.3,30.07,WSW,254,0.0,0.0,92,0.00,,,0.00,meteohub,2013-04-09 09:32:00,
2013-04-09 05:38:00,27.3,25.3,30.07,WSW,254,0.0,0.0,92,0.00,,,0.00,meteohub,2013-04-09 09:38:00,
2013-04-09 05:43:00,27.3,25.3,30.07,WSW,254,0.0,0.0,92,0.00,,,0.00,meteohub,2013-04-09 09:43:00,
2013-04-09 05:48:00,27.3,25.3,30.08,WSW,254,0.0,0.0,92,0.00,,,0.00,meteohub,2013-04-09 09:48:00,
2013-04-09 05:54:00,27.5,25.5,30.08,WSW,254,0.0,0.0,92,0.00,,,0.00,meteohub,2013-04-09 09:54:00,
2013-04-09 05:59:00,27.5,25.5,30.08,WSW,254,0.0,0.0,92,0.00,,,0.00,meteohub,2013-04-09 09:59:00,
2013-04-09 06:04:00,27.7,25.7,30.08,WSW,254,0.0,0.0,92,0.00,,,0.00,meteohub,2013-04-09 10:04:00,
2013-04-09 06:09:00,27.9,26.1,30.08,WSW,254,0.0,0.0,93,0.00,,,0.00,meteohub,2013-04-09 10:09:00,
2013-04-09 06:14:00,27.9,25.9,30.08,WSW,254,0.0,0.0,92,0.00,,,0.00,meteohub,2013-04-09 10:14:00,
2013-04-09 06:19:00,27.9,25.9,30.08,WSW,254,0.0,0.0,92,0.00,,,0.00,meteohub,2013-04-09 10:19:00,
2013-04-09 06:25:00,27.9,25.9,30.09,WSW,254,0.0,0.0,92,0.00,,,0.00,meteohub,2013-04-09 10:25:00,
2013-04-09 06:30:00,28.0,26.1,30.09,WSW,254,0.0,0.0,92,0.00,,,0.00,meteohub,2013-04-09 10:30:00,
2013-04-09 06:35:00,28.0,26.1,30.09,WSW,254,0.0,0.0,92,0.00,,,0.00,meteohub,2013-04-09 10:35:00,
2013-04-09 06:40:00,28.2,26.2,30.09,WSW,254,0.0,0.0,92,0.00,,,0.00,meteohub,2013-04-09 10:40:00,
2013-04-09 06:45:00,28.2,26.2,30.09,WSW,254,0.0,0.0,92,0.00,,,0.00,meteohub,2013-04-09 10:45:00,
2013-04-09 06:51:00,28.4,26.4,30.09,WSW,254,0.0,0.0,92,0.00,,,0.00,meteohub,2013-04-09 10:51:00,
2013-04-09 06:56:00,28.4,26.4,30.08,WSW,254,0.0,0.0,92,0.00,,,0.00,meteohub,2013-04-09 10:56:00,
2013-04-09 07:01:00,28.6,26.6,30.09,WSW,254,0.0,0.0,92,0.00,,,0.00,meteohub,2013-04-09 11:01:00,
2013-04-09 07:06:00,28.6,26.6,30.09,WSW,254,0.0,0.0,92,0.00,,,0.00,meteohub,2013-04-09 11:06:00,
2013-04-09 07:12:00,28.8,26.8,30.09,WSW,254,0.0,0.0,92,0.00,,,0.00,meteohub,2013-04-09 11:12:00,
2013-04-09 07:17:00,28.8,26.8,30.09,WSW,254,0.0,0.0,92,0.00,,,0.00,meteohub,2013-04-09 11:17:00,
2013-04-09 07:22:00,28.8,26.8,30.09,WSW,254,0.0,0.0,92,0.00,,,0.00,meteohub,2013-04-09 11:22:00,
2013-04-09 07:27:00,28.9,27.0,30.09,WSW,254,0.0,0.0,92,0.00,,,0.00,meteohub,2013-04-09 11:27:00,
2013-04-09 07:32:00,28.9,27.0,30.09,WSW,254,0.0,0.0,92,0.00,,,0.00,meteohub,2013-04-09 11:32:00,
2013-04-09 07:37:00,29.1,26.8,30.09,WSW,254,0.0,0.0,91,0.00,,,0.00,meteohub,2013-04-09 11:37:00,
2013-04-09 07:43:00,29.3,27.0,30.09,WSW,254,0.0,0.0,91,0.00,,,0.00,meteohub,2013-04-09 11:43:00,
2013-04-09 07:48:00,29.5,27.0,30.09,WSW,254,0.0,0.0,90,0.00,,,0.00,meteohub,2013-04-09 11:48:00,
2013-04-09 07:53:00,29.7,27.1,30.09,WSW,254,0.0,0.0,90,0.00,,,0.00,meteohub,2013-04-09 11:53:00,
2013-04-09 07:58:00,29.8,27.3,30.09,WSW,254,0.0,0.0,90,0.00,,,0.00,meteohub,2013-04-09 11:58:00,
2013-04-09 08:03:00,29.8,27.3,30.09,WSW,254,0.0,1.0,90,0.00,,,0.00,meteohub,2013-04-09 12:03:00,
2013-04-09 08:09:00,30.0,27.5,30.08,WSW,254,1.0,1.0,90,0.00,,,0.00,meteohub,2013-04-09 12:09:00,
2013-04-09 08:14:00,30.0,27.5,30.08,WSW,254,0.0,1.0,90,0.00,,,0.00,meteohub,2013-04-09 12:14:00,
2013-04-09 08:20:00,30.0,27.7,30.08,WSW,254,0.0,2.0,91,0.00,,,0.00,meteohub,2013-04-09 12:20:00,
2013-04-09 08:25:00,30.2,28.2,30.08,WSW,254,0.0,2.0,92,0.00,,,0.00,meteohub,2013-04-09 12:25:00,
2013-04-09 08:30:00,30.4,28.0,30.08,WSW,254,0.0,0.0,91,0.00,,,0.00,meteohub,2013-04-09 12:30:00,
2013-04-09 08:35:00,30.4,28.4,30.08,WSW,254,0.0,0.0,92,0.00,,,0.00,meteohub,2013-04-09 12:35:00,
2013-04-09 08:41:00,30.6,28.6,30.07,WSW,254,0.0,0.0,92,0.00,,,0.00,meteohub,2013-04-09 12:41:00,
2013-04-09 08:47:00,30.6,28.2,30.07,WSW,254,0.0,0.0,91,0.00,,,0.00,meteohub,2013-04-09 12:47:00,
2013-04-09 08:52:00,30.7,28.8,30.06,ESE,121,3.0,0.0,92,0.01,,,0.01,meteohub,2013-04-09 12:52:00,
2013-04-09 08:57:00,30.9,28.9,30.06,SE,128,1.0,5.0,92,0.01,,,0.01,meteohub,2013-04-09 12:57:00,
2013-04-09 09:02:00,31.3,29.3,30.06,SSE,158,2.0,5.0,92,0.01,,,0.01,meteohub,2013-04-09 13:02:00,
2013-04-09 09:07:00,31.5,29.1,30.06,SSE,151,1.0,5.0,91,0.01,,,0.01,meteohub,2013-04-09 13:07:00,
2013-04-09 09:12:00,31.6,29.3,30.06,SE,131,3.0,4.0,91,0.01,,,0.01,meteohub,2013-04-09 13:12:00,
2013-04-09 09:17:00,31.8,29.5,30.06,South,188,1.0,5.0,91,0.01,,,0.01,meteohub,2013-04-09 13:17:00,
2013-04-09 09:23:00,32.0,29.5,30.06,ESE,123,3.0,5.0,90,0.01,,,0.01,meteohub,2013-04-09 13:23:00,
2013-04-09 09:28:00,32.2,29.8,30.06,SE,140,0.0,5.0,91,0.01,,,0.01,meteohub,2013-04-09 13:28:00,
2013-04-09 09:33:00,32.4,30.0,30.06,SSE,165,0.0,4.0,91,0.01,,,0.01,meteohub,2013-04-09 13:33:00,
2013-04-09 09:39:00,32.4,30.0,30.06,SSW,203,1.0,4.0,91,0.01,,,0.01,meteohub,2013-04-09 13:39:00,
2013-04-09 09:44:00,32.5,30.2,30.06,SSE,150,1.0,4.0,91,0.01,,,0.01,meteohub,2013-04-09 13:44:00,
2013-04-09 09:49:00,32.5,30.2,30.06,SE,132,0.0,6.0,91,0.00,,,0.01,meteohub,2013-04-09 13:49:00,
2013-04-09 09:54:00,32.4,30.4,30.06,SE,132,0.0,6.0,92,0.00,,,0.01,meteohub,2013-04-09 13:54:00,
2013-04-09 09:59:00,32.4,30.0,30.06,South,170,2.0,6.0,91,0.00,,,0.01,meteohub,2013-04-09 13:59:00,
2013-04-09 10:05:00,32.4,30.4,30.06,South,170,0.0,4.0,92,0.00,,,0.01,meteohub,2013-04-09 14:05:00,
2013-04-09 10:10:00,32.2,30.2,30.06,South,170,0.0,3.0,92,0.00,,,0.01,meteohub,2013-04-09 14:10:00,
2013-04-09 10:15:00,32.2,30.2,30.06,SE,136,2.0,4.0,92,0.00,,,0.01,meteohub,2013-04-09 14:15:00,
2013-04-09 10:20:00,32.2,30.2,30.06,ESE,111,0.0,4.0,92,0.00,,,0.01,meteohub,2013-04-09 14:20:00,
2013-04-09 10:25:00,32.2,30.2,30.06,ESE,112,0.0,5.0,92,0.00,,,0.01,meteohub,2013-04-09 14:25:00,
2013-04-09 10:31:00,32.2,29.8,30.06,ESE,118,1.0,5.0,91,0.00,,,0.01,meteohub,2013-04-09 14:31:00,
2013-04-09 10:36:00,32.2,29.8,30.06,ESE,105,1.0,5.0,91,0.01,,,0.02,meteohub,2013-04-09 14:36:00,
2013-04-09 10:41:00,32.2,30.2,30.06,ESE,115,0.0,5.0,92,0.01,,,0.02,meteohub,2013-04-09 14:41:00,
2013-04-09 10:46:00,32.4,30.4,30.06,ESE,115,2.0,4.0,92,0.01,,,0.02,meteohub,2013-04-09 14:46:00,
2013-04-09 10:52:00,32.4,30.4,30.05,East,99,1.0,4.0,92,0.01,,,0.02,meteohub,2013-04-09 14:52:00,
2013-04-09 10:57:00,32.4,30.6,30.05,ESE,120,2.0,3.0,93,0.01,,,0.02,meteohub,2013-04-09 14:57:00,
2013-04-09 11:02:00,32.4,30.6,30.04,SE,131,3.0,3.0,93,0.01,,,0.02,meteohub,2013-04-09 15:02:00,
2013-04-09 11:07:00,32.5,30.7,30.04,ESE,111,0.0,4.0,93,0.01,,,0.02,meteohub,2013-04-09 15:07:00,
2013-04-09 11:12:00,32.9,31.3,30.04,SE,124,2.0,4.0,94,0.01,,,0.02,meteohub,2013-04-09 15:12:00,
2013-04-09 11:17:00,33.3,31.6,30.04,SSE,163,0.0,4.0,94,0.01,,,0.02,meteohub,2013-04-09 15:17:00,
2013-04-09 11:22:00,33.4,31.8,30.04,SSE,166,2.0,4.0,94,0.02,,,0.03,meteohub,2013-04-09 15:22:00,
2013-04-09 11:27:00,33.6,32.0,30.04,ESE,114,0.0,5.0,94,0.02,,,0.03,meteohub,2013-04-09 15:27:00,
2013-04-09 11:33:00,33.6,31.8,30.04,ESE,123,1.0,5.0,93,0.01,,,0.03,meteohub,2013-04-09 15:33:00,
2013-04-09 11:38:00,33.6,32.0,30.04,ESE,123,0.0,5.0,94,0.01,,,0.03,meteohub,2013-04-09 15:38:00,
2013-04-09 11:43:00,34.0,32.4,30.04,East,82,1.0,3.0,94,0.01,,,0.03,meteohub,2013-04-09 15:43:00,
2013-04-09 11:48:00,34.0,32.2,30.04,ESE,113,2.0,5.0,93,0.01,,,0.03,meteohub,2013-04-09 15:48:00,
2013-04-09 11:53:00,34.2,32.4,30.03,ESE,121,2.0,5.0,93,0.01,,,0.03,meteohub,2013-04-09 15:53:00,
2013-04-09 11:59:00,34.2,32.4,30.03,SE,126,0.0,5.0,93,0.01,,,0.03,meteohub,2013-04-09 15:59:00,
2013-04-09 12:04:00,34.2,32.4,30.03,SE,127,0.0,4.0,93,0.01,,,0.03,meteohub,2013-04-09 16:04:00,
2013-04-09 12:09:00,34.3,32.7,30.03,SE,139,0.0,4.0,94,0.01,,,0.03,meteohub,2013-04-09 16:09:00,
2013-04-09 12:14:00,34.3,32.7,30.02,SE,133,1.0,5.0,94,0.02,,,0.04,meteohub,2013-04-09 16:14:00,
2013-04-09 12:19:00,34.5,32.9,30.02,SE,136,3.0,5.0,94,0.02,,,0.04,meteohub,2013-04-09 16:19:00,
2013-04-09 12:25:00,34.5,32.7,30.02,ESE,109,2.0,4.0,93,0.01,,,0.04,meteohub,2013-04-09 16:25:00,
2013-04-09 12:30:00,34.5,32.9,30.02,SE,134,0.0,5.0,94,0.01,,,0.04,meteohub,2013-04-09 16:30:00,
2013-04-09 12:35:00,34.7,33.1,30.01,East,100,2.0,5.0,94,0.01,,,0.04,meteohub,2013-04-09 16:35:00,
2013-04-09 12:40:00,34.9,33.3,30.01,ESE,117,0.0,5.0,94,0.01,,,0.04,meteohub,2013-04-09 16:40:00,
2013-04-09 12:45:00,34.9,33.3,30.01,ESE,118,2.0,5.0,94,0.01,,,0.04,meteohub,2013-04-09 16:45:00,
2013-04-09 12:51:00,35.1,33.4,30.00,South,190,0.0,4.0,94,0.01,,,0.04,meteohub,2013-04-09 16:51:00,
2013-04-09 12:57:00,35.2,33.4,30.00,ESE,119,3.0,8.0,93,0.01,,,0.04,meteohub,2013-04-09 16:57:00,
2013-04-09 13:02:00,35.4,33.6,29.99,ESE,121,5.0,8.0,93,0.01,,,0.04,meteohub,2013-04-09 17:02:00,
2013-04-09 13:07:00,35.6,33.8,29.99,East,89,3.0,8.0,93,0.01,,,0.04,meteohub,2013-04-09 17:07:00,
2013-04-09 13:12:00,35.8,33.6,29.99,ESE,121,7.0,9.0,92,0.00,,,0.04,meteohub,2013-04-09 17:12:00,
2013-04-09 13:17:00,36.0,33.8,29.99,SE,134,7.0,10.0,92,0.00,,,0.04,meteohub,2013-04-09 17:17:00,
2013-04-09 13:22:00,36.1,34.0,29.99,SSE,167,1.0,10.0,92,0.00,,,0.04,meteohub,2013-04-09 17:22:00,
2013-04-09 13:28:00,36.1,33.8,29.99,ESE,108,7.0,10.0,91,0.00,,,0.04,meteohub,2013-04-09 17:28:00,
2013-04-09 13:33:00,36.1,33.8,29.99,ESE,104,1.0,10.0,91,0.00,,,0.04,meteohub,2013-04-09 17:33:00,
2013-04-09 13:38:00,36.1,33.8,29.99,East,98,1.0,10.0,91,0.00,,,0.04,meteohub,2013-04-09 17:38:00,
2013-04-09 13:44:00,36.1,34.0,29.99,SE,125,2.0,10.0,92,0.00,,,0.04,meteohub,2013-04-09 17:44:00,
2013-04-09 13:49:00,36.3,34.2,30.00,SE,136,5.0,10.0,92,0.00,,,0.04,meteohub,2013-04-09 17:49:00,
2013-04-09 13:54:00,36.3,34.2,30.00,ESE,111,1.0,8.0,92,0.00,,,0.04,meteohub,2013-04-09 17:54:00,
2013-04-09 14:00:00,36.3,34.2,29.99,ESE,121,3.0,6.0,92,0.00,,,0.04,meteohub,2013-04-09 18:00:00,
2013-04-09 14:05:00,36.3,34.2,29.99,ESE,123,5.0,7.0,92,0.00,,,0.04,meteohub,2013-04-09 18:05:00,
2013-04-09 14:10:00,36.3,34.2,30.00,SE,132,1.0,7.0,92,0.00,,,0.04,meteohub,2013-04-09 18:10:00,
2013-04-09 14:15:00,36.3,34.2,30.01,South,176,0.0,7.0,92,0.00,,,0.04,meteohub,2013-04-09 18:15:00,
2013-04-09 14:21:00,36.3,34.2,30.01,SE,136,0.0,7.0,92,0.00,,,0.04,meteohub,2013-04-09 18:21:00,
2013-04-09 14:26:00,36.3,34.2,30.01,SE,136,0.0,4.0,92,0.00,,,0.04,meteohub,2013-04-09 18:26:00,
2013-04-09 14:32:00,36.3,34.2,30.00,ESE,102,4.0,4.0,92,0.01,,,0.05,meteohub,2013-04-09 18:32:00,
2013-04-09 14:37:00,36.3,34.2,30.00,ESE,119,0.0,5.0,92,0.01,,,0.05,meteohub,2013-04-09 18:37:00,
2013-04-09 14:42:00,36.3,34.2,29.99,SSE,157,0.0,5.0,92,0.01,,,0.05,meteohub,2013-04-09 18:42:00,
2013-04-09 14:47:00,36.5,34.7,29.99,ESE,113,0.0,5.0,93,0.01,,,0.05,meteohub,2013-04-09 18:47:00,
2013-04-09 14:53:00,36.7,34.9,29.98,SE,132,3.0,4.0,93,0.01,,,0.05,meteohub,2013-04-09 18:53:00,
2013-04-09 14:58:00,36.9,35.1,29.99,SE,127,4.0,4.0,93,0.01,,,0.05,meteohub,2013-04-09 18:58:00,
2013-04-09 15:04:00,36.9,34.7,29.97,SE,139,6.0,6.0,92,0.01,,,0.05,meteohub,2013-04-09 19:04:00,
2013-04-09 15:11:00,36.9,34.7,29.97,SE,129,3.0,8.0,92,0.01,,,0.05,meteohub,2013-04-09 19:11:00,
2013-04-09 15:17:00,36.9,34.7,29.97,ESE,108,0.0,8.0,92,0.01,,,0.05,meteohub,2013-04-09 19:17:00,
2013-04-09 15:22:00,37.0,34.9,29.99,SE,126,1.0,8.0,92,0.01,,,0.05,meteohub,2013-04-09 19:22:00,
2013-04-09 15:27:00,37.0,34.9,30.00,SSE,149,0.0,8.0,92,0.01,,,0.05,meteohub,2013-04-09 19:27:00,
2013-04-09 15:32:00,37.0,34.9,30.00,SSE,149,0.0,5.0,92,0.00,,,0.05,meteohub,2013-04-09 19:32:00,
2013-04-09 15:37:00,36.9,34.7,29.99,SSE,149,1.0,3.0,92,0.00,,,0.05,meteohub,2013-04-09 19:37:00,
2013-04-09 15:43:00,36.7,34.5,29.99,SSE,149,0.0,2.0,92,0.00,,,0.05,meteohub,2013-04-09 19:43:00,
2013-04-09 15:48:00,36.7,34.5,29.99,SSE,149,2.0,2.0,92,0.00,,,0.05,meteohub,2013-04-09 19:48:00,
2013-04-09 15:53:00,36.7,34.5,29.99,SSE,149,0.0,4.0,92,0.00,,,0.05,meteohub,2013-04-09 19:53:00,
2013-04-09 15:58:00,36.7,34.5,29.99,SSE,149,1.0,4.0,92,0.00,,,0.05,meteohub,2013-04-09 19:58:00,
2013-04-09 16:03:00,36.7,34.5,29.99,SSE,149,0.0,3.0,92,0.00,,,0.05,meteohub,2013-04-09 20:03:00,
2013-04-09 16:09:00,36.7,34.9,29.99,SSE,149,1.0,2.0,93,0.00,,,0.05,meteohub,2013-04-09 20:09:00,
2013-04-09 16:14:00,36.7,34.5,29.99,SSE,148,0.0,2.0,92,0.00,,,0.05,meteohub,2013-04-09 20:14:00,
2013-04-09 16:19:00,36.7,34.5,29.98,ESE,117,2.0,2.0,92,0.00,,,0.05,meteohub,2013-04-09 20:19:00,
2013-04-09 16:24:00,36.7,34.5,29.98,ESE,117,1.0,2.0,92,0.00,,,0.05,meteohub,2013-04-09 20:24:00,
2013-04-09 16:30:00,36.7,34.9,29.99,ESE,117,0.0,2.0,93,0.00,,,0.05,meteohub,2013-04-09 20:30:00,
2013-04-09 16:35:00,36.7,34.9,29.99,ESE,117,0.0,2.0,93,0.00,,,0.05,meteohub,2013-04-09 20:35:00,
2013-04-09 16:41:00,36.7,35.1,29.98,ESE,119,0.0,2.0,94,0.00,,,0.05,meteohub,2013-04-09 20:41:00,
2013-04-09 16:46:00,36.5,34.7,29.98,ESE,119,0.0,3.0,93,0.00,,,0.05,meteohub,2013-04-09 20:46:00,
2013-04-09 16:51:00,36.5,34.9,29.98,ESE,119,0.0,3.0,94,0.00,,,0.05,meteohub,2013-04-09 20:51:00,
2013-04-09 16:57:00,36.5,34.9,29.99,ESE,119,0.0,2.0,94,0.00,,,0.05,meteohub,2013-04-09 20:57:00,
2013-04-09 17:02:00,36.3,34.7,29.99,ESE,119,0.0,2.0,94,0.00,,,0.05,meteohub,2013-04-09 21:02:00,
2013-04-09 17:07:00,36.5,34.9,29.98,ESE,119,0.0,1.0,94,0.00,,,0.05,meteohub,2013-04-09 21:07:00,
2013-04-09 17:12:00,36.3,34.7,29.98,ESE,119,0.0,1.0,94,0.00,,,0.05,meteohub,2013-04-09 21:12:00,
2013-04-09 17:17:00,36.3,34.7,29.98,ESE,119,0.0,2.0,94,0.00,,,0.05,meteohub,2013-04-09 21:17:00,
2013-04-09 17:22:00,36.3,35.1,29.97,ESE,119,0.0,2.0,95,0.00,,,0.05,meteohub,2013-04-09 21:22:00,
2013-04-09 17:27:00,36.3,35.1,29.96,ESE,119,2.0,2.0,95,0.00,,,0.05,meteohub,2013-04-09 21:27:00,
2013-04-09 17:32:00,36.3,35.1,29.96,SE,131,2.0,2.0,95,0.00,,,0.05,meteohub,2013-04-09 21:32:00,
2013-04-09 17:37:00,36.3,35.1,29.96,SE,131,1.0,3.0,95,0.00,,,0.05,meteohub,2013-04-09 21:37:00,
2013-04-09 17:43:00,36.3,35.1,29.96,SE,131,3.0,3.0,95,0.00,,,0.05,meteohub,2013-04-09 21:43:00,
2013-04-09 17:48:00,36.3,35.1,29.96,SE,130,0.0,3.0,95,0.00,,,0.05,meteohub,2013-04-09 21:48:00,
2013-04-09 17:53:00,36.3,35.2,29.96,SE,130,0.0,3.0,96,0.00,,,0.05,meteohub,2013-04-09 21:53:00,
2013-04-09 17:58:00,36.3,35.2,29.95,SE,130,0.0,3.0,96,0.00,,,0.05,meteohub,2013-04-09 21:58:00,
2013-04-09 18:04:00,36.3,35.2,29.94,ESE,123,4.0,4.0,96,0.00,,,0.05,meteohub,2013-04-09 22:04:00,
2013-04-09 18:09:00,36.1,34.9,29.93,SE,126,4.0,7.0,95,0.00,,,0.05,meteohub,2013-04-09 22:09:00,
2013-04-09 18:14:00,36.1,35.1,29.93,SSE,151,1.0,7.0,96,0.00,,,0.05,meteohub,2013-04-09 22:14:00,
2013-04-09 18:20:00,36.1,35.1,29.92,South,183,0.0,7.0,96,0.00,,,0.05,meteohub,2013-04-09 22:20:00,
2013-04-09 18:25:00,36.1,35.1,29.92,SE,129,0.0,6.0,96,0.00,,,0.05,meteohub,2013-04-09 22:25:00,
2013-04-09 18:30:00,36.1,35.1,29.91,SE,138,0.0,3.0,96,0.00,,,0.05,meteohub,2013-04-09 22:30:00,
2013-04-09 18:35:00,36.1,35.1,29.92,South,190,0.0,3.0,96,0.00,,,0.05,meteohub,2013-04-09 22:35:00,
2013-04-09 18:41:00,36.0,34.9,29.93,South,190,1.0,4.0,96,0.00,,,0.05,meteohub,2013-04-09 22:41:00,
2013-04-09 18:47:00,36.0,34.7,29.93,SE,142,1.0,4.0,95,0.00,,,0.05,meteohub,2013-04-09 22:47:00,
2013-04-09 18:52:00,36.0,34.7,29.93,South,182,1.0,4.0,95,0.00,,,0.05,meteohub,2013-04-09 22:52:00,
2013-04-09 18:57:00,36.0,34.7,29.93,SSE,168,0.0,4.0,95,0.00,,,0.05,meteohub,2013-04-09 22:57:00,
2013-04-09 19:02:00,36.0,34.7,29.94,SSW,198,0.0,4.0,95,0.00,,,0.05,meteohub,2013-04-09 23:02:00,
2013-04-09 19:07:00,36.0,34.7,29.94,SSW,198,0.0,4.0,95,0.00,,,0.05,meteohub,2013-04-09 23:07:00,
2013-04-09 19:12:00,36.0,34.7,29.94,SSW,198,0.0,3.0,95,0.00,,,0.05,meteohub,2013-04-09 23:12:00,
2013-04-09 19:17:00,35.8,34.5,29.94,SSW,198,0.0,1.0,95,0.00,,,0.05,meteohub,2013-04-09 23:17:00,
2013-04-09 19:24:00,35.8,34.5,29.95,SSW,198,0.0,1.0,95,0.00,,,0.05,meteohub,2013-04-09 23:24:00,
2013-04-09 19:29:00,35.6,34.3,29.95,SSW,198,0.0,1.0,95,0.00,,,0.05,meteohub,2013-04-09 23:29:00,
2013-04-09 19:35:00,35.6,34.3,29.96,SSW,198,0.0,2.0,95,0.00,,,0.05,meteohub,2013-04-09 23:35:00,
2013-04-09 19:40:00,35.6,34.3,29.96,SSW,198,0.0,2.0,95,0.00,,,0.05,meteohub,2013-04-09 23:40:00,
2013-04-09 19:45:00,35.4,34.2,29.96,SSW,198,0.0,1.0,95,0.00,,,0.05,meteohub,2013-04-09 23:45:00,
2013-04-09 19:50:00,35.4,34.2,29.96,SSW,198,0.0,1.0,95,0.00,,,0.05,meteohub,2013-04-09 23:50:00,
2013-04-09 19:55:00,35.4,34.2,29.96,SSW,198,0.0,1.0,95,0.00,,,0.05,meteohub,2013-04-09 23:55:00,
2013-04-09 20:00:00,35.2,34.0,29.97,SSW,198,0.0,0.0,95,0.00,,,0.05,meteohub,2013-04-10 00:00:00,
2013-04-09 20:06:00,35.1,33.8,29.96,SSW,198,0.0,0.0,95,0.00,,,0.00,meteohub,2013-04-10 00:06:00,
2013-04-09 20:11:00,35.1,33.8,29.96,SSW,198,0.0,0.0,95,0.00,,,0.00,meteohub,2013-04-10 00:11:00,
2013-04-09 20:17:00,35.1,33.8,29.97,SSW,198,0.0,0.0,95,0.00,,,0.00,meteohub,2013-04-10 00:17:00,
2013-04-09 20:22:00,35.1,33.8,29.97,SSW,198,0.0,0.0,95,0.00,,,0.00,meteohub,2013-04-10 00:22:00,
2013-04-09 20:27:00,35.1,34.0,29.98,SSW,198,0.0,0.0,96,0.00,,,0.00,meteohub,2013-04-10 00:27:00,
2013-04-09 20:32:00,35.1,34.0,29.98,SSW,198,0.0,0.0,96,0.00,,,0.00,meteohub,2013-04-10 00:32:00,
2013-04-09 20:37:00,35.1,34.0,29.98,SSW,198,0.0,0.0,96,0.00,,,0.00,meteohub,2013-04-10 00:37:00,
2013-04-09 20:42:00,35.1,34.0,29.98,SSW,198,0.0,0.0,96,0.00,,,0.00,meteohub,2013-04-10 00:42:00,
2013-04-09 20:48:00,34.9,33.8,29.98,SSW,198,0.0,0.0,96,0.00,,,0.00,meteohub,2013-04-10 00:48:00,
2013-04-09 20:53:00,34.9,33.8,29.98,SSW,198,0.0,0.0,96,0.00,,,0.00,meteohub,2013-04-10 00:53:00,
2013-04-09 20:58:00,34.9,33.8,29.98,SSW,198,0.0,0.0,96,0.00,,,0.00,meteohub,2013-04-10 00:58:00,
2013-04-09 21:03:00,34.9,33.8,29.98,SSW,198,0.0,0.0,96,0.00,,,0.00,meteohub,2013-04-10 01:03:00,
2013-04-09 21:09:00,34.9,33.8,29.99,SSW,198,0.0,0.0,96,0.00,,,0.00,meteohub,2013-04-10 01:09:00,
2013-04-09 21:14:00,34.7,33.6,29.98,SSW,198,0.0,0.0,96,0.00,,,0.00,meteohub,2013-04-10 01:14:00,
2013-04-09 21:19:00,34.7,33.6,29.98,SSW,198,0.0,0.0,96,0.00,,,0.00,meteohub,2013-04-10 01:19:00,
2013-04-09 21:24:00,34.5,33.4,29.97,SSW,198,1.0,0.0,96,0.01,,,0.01,meteohub,2013-04-10 01:24:00,
2013-04-09 21:30:00,34.5,33.4,29.97,SSW,198,0.0,1.0,96,0.01,,,0.01,meteohub,2013-04-10 01:30:00,
2013-04-09 21:35:00,34.5,33.4,29.96,SSW,197,0.0,1.0,96,0.01,,,0.01,meteohub,2013-04-10 01:35:00,
2013-04-09 21:40:00,34.5,33.4,29.96,SSW,197,0.0,2.0,96,0.01,,,0.01,meteohub,2013-04-10 01:40:00,
2013-04-09 21:45:00,34.3,33.6,29.96,SSW,197,0.0,2.0,97,0.01,,,0.01,meteohub,2013-04-10 01:45:00,
2013-04-09 21:50:00,34.3,33.6,29.95,SSW,197,0.0,1.0,97,0.01,,,0.01,meteohub,2013-04-10 01:50:00,
2013-04-09 21:55:00,34.3,33.6,29.95,SSW,198,0.0,3.0,97,0.01,,,0.01,meteohub,2013-04-10 01:55:00,
2013-04-09 22:00:00,34.3,33.6,29.95,SSW,198,0.0,3.0,97,0.01,,,0.01,meteohub,2013-04-10 02:00:00,
2013-04-09 22:06:00,34.3,33.6,29.95,SSW,198,0.0,3.0,97,0.01,,,0.01,meteohub,2013-04-10 02:06:00,
2013-04-09 22:11:00,34.3,33.6,29.94,SSW,198,0.0,2.0,97,0.01,,,0.01,meteohub,2013-04-10 02:11:00,
2013-04-09 22:16:00,34.3,33.6,29.94,SSW,198,0.0,1.0,97,0.00,,,0.01,meteohub,2013-04-10 02:16:00,
2013-04-09 22:22:00,34.3,33.6,29.95,SSW,198,0.0,1.0,97,0.00,,,0.01,meteohub,2013-04-10 02:22:00,
2013-04-09 22:27:00,34.3,33.6,29.94,SSW,198,1.0,1.0,97,0.00,,,0.01,meteohub,2013-04-10 02:27:00,
2013-04-09 22:32:00,34.3,33.6,29.94,SSW,198,0.0,1.0,97,0.00,,,0.01,meteohub,2013-04-10 02:32:00,
2013-04-09 22:37:00,34.3,33.6,29.94,SSW,198,0.0,2.0,97,0.00,,,0.01,meteohub,2013-04-10 02:37:00,
2013-04-09 22:43:00,34.3,33.6,29.94,SSW,198,0.0,2.0,97,0.00,,,0.01,meteohub,2013-04-10 02:43:00,
2013-04-09 22:48:00,34.3,33.6,29.93,SSW,198,0.0,1.0,97,0.00,,,0.01,meteohub,2013-04-10 02:48:00,
2013-04-09 22:53:00,34.3,33.6,29.94,SSW,198,0.0,2.0,97,0.00,,,0.01,meteohub,2013-04-10 02:53:00,
2013-04-09 22:58:00,34.3,33.6,29.93,SSW,198,0.0,3.0,97,0.00,,,0.01,meteohub,2013-04-10 02:58:00,
2013-04-09 23:03:00,34.2,33.4,29.93,SSW,198,0.0,3.0,97,0.00,,,0.01,meteohub,2013-04-10 03:03:00,
2013-04-09 23:09:00,34.3,33.6,29.93,SSW,198,0.0,3.0,97,0.00,,,0.01,meteohub,2013-04-10 03:09:00,
2013-04-09 23:14:00,34.2,33.4,29.93,South,190,4.0,4.0,97,0.00,,,0.01,meteohub,2013-04-10 03:14:00,
2013-04-09 23:20:00,34.3,33.6,29.93,SSW,197,0.0,2.0,97,0.00,,,0.01,meteohub,2013-04-10 03:20:00,
2013-04-09 23:25:00,34.3,33.6,29.93,SSW,197,0.0,4.0,97,0.00,,,0.01,meteohub,2013-04-10 03:25:00,
2013-04-09 23:30:00,34.3,33.6,29.93,SSW,197,0.0,3.0,97,0.00,,,0.01,meteohub,2013-04-10 03:30:00,
2013-04-09 23:36:00,34.3,33.6,29.93,SSW,197,0.0,2.0,97,0.00,,,0.01,meteohub,2013-04-10 03:36:00,
2013-04-09 23:41:00,34.2,33.4,29.93,SSW,197,0.0,2.0,97,0.00,,,0.01,meteohub,2013-04-10 03:41:00,
2013-04-09 23:47:00,34.2,33.4,29.93,SSW,197,0.0,1.0,97,0.00,,,0.01,meteohub,2013-04-10 03:47:00,
2013-04-09 23:52:00,34.2,33.4,29.93,SSW,197,0.0,1.0,97,0.00,,,0.01,meteohub,2013-04-10 03:52:00,
2013-04-09 23:57:00,34.2,33.4,29.92,SSW,197,0.0,2.0,97,0.01,,,0.02,meteohub,2013-04-10 03:57:00,